METAR AND TAF INFORMATION
METAR FOR EDLP
ADDS - METARS form results

(1604 UTC 19 August 2019)
Data provider http://aviationweather.gov/metar/data/
 
METAR text: EDLP 191550Z 25007KT 130V300 CAVOK 21/07 Q1017
Conditions at: EDLP (PADERBORN/LIPPST, DE) observed 1550 UTC 19 August 2019
Temperature: 21.0°C (70°F)
Dewpoint: 7.0°C (45°F) [RH = 40%]
Pressure (altimeter): 30.03 inches Hg (1017.0 mb)
Winds: from the WSW (250 degrees) at 8 MPH (7 knots; 3.6 m/s)
Visibility: 6 or more miles (10+ km)
Ceiling: ceiling and visibility are OK
Clouds: unknown
Weather: no significant weather observed at this time

METAR text: EDLP 191520Z 25008KT 220V320 CAVOK 20/08 Q1017
Conditions at: EDLP (PADERBORN/LIPPST, DE) observed 1520 UTC 19 August 2019
Temperature: 20.0°C (68°F)
Dewpoint: 8.0°C (46°F) [RH = 46%]
Pressure (altimeter): 30.03 inches Hg (1017.0 mb)
Winds: from the WSW (250 degrees) at 9 MPH (8 knots; 4.1 m/s)
Visibility: 6 or more miles (10+ km)
Ceiling: ceiling and visibility are OK
Clouds: unknown
Weather: no significant weather observed at this time

Forecast for: EDLP (PADERBORN/LIPPST, DE)
Text: TAF EDLP 191100Z 1912/2012 25012KT CAVOK
Forecast period: 1200 to 1600 UTC 19 August 2019
Forecast type: FROM: standard forecast or significant change
Winds: from the WSW (250 degrees) at 14 MPH (12 knots; 6.2 m/s)
Visibility: 6 or more miles 10+ km)
Ceiling: unknown
Clouds: missing
Weather: NSW  (no significant weather)
Text: BECMG 1916/1919 19006KT
Forecast period: 1600 UTC 19 August 2019 to 0700 UTC 20 August 2019
Forecast type: BECOMING: Conditions expected to become as follows by 1900 UTC 19 August 2019
Winds: from the S (190 degrees) at 7 MPH (6 knots; 3.1 m/s)
Visibility: 6 or more miles 10+ km)
Ceiling: unknown
Clouds: missing
Weather: NSW  (no significant weather)
Text: BECMG 2007/2010 27007KT
Forecast period: 0700 to 1200 UTC 20 August 2019
Forecast type: BECOMING: Conditions expected to become as follows by 1000 UTC 20 August 2019
Winds: from the W (270 degrees) at 8 MPH (7 knots; 3.6 m/s)
Visibility: 6 or more miles 10+ km)
Ceiling: unknown
Clouds: missing
Weather: NSW  (no significant weather)

 AIRPORT MAP

 RUNWAY INFORMATION
Runway 06 Runway length 7152 ft Runway width 148 ft
Runway elevation 699 ft Runway displaced threshold 0 ft Runway heading 57
Runway 24 Runway length 7152 ft Runway width 148 ft
Runway elevation 674 ft Runway displaced threshold 0 ft Runway heading 237

 AIRPORT FREQUENCIES
Type ATIS Name ATIS Frequency 125.725 MHZ
Type GND Name GND Frequency 121.925 MHZ
Type INFO Name LANGEN INF Frequency 129.875 MHZ
Type OPS Name DISPATCH Frequency 130.425 MHZ
Type RDR Name LANGEN RAD Frequency 125.225 MHZ
Type TWR Name TWR Frequency 133.375 MHZ

 AIRPORT NEAR NAVIGATION AIDS
Type NDB-DME Name Paderborn/Lippstadt Frequency 354 KHZ



Powered by Virtual Airlines Manager [v2.6.2]